Fume Blanc Commodore — WDD5259 — position and weather

sailwx.info

Track history (hours):
 
Tides and Currents Weather Stations Pressure Air Temp Water Temp Dewpoint Dewpoint Depression Visibility Wind Speed Wind Dir Waves Ship Positions

Fume Blanc Commodore

Owner: Commodore Dining Cruises, Alameda, CA. More information available from US FCC via Universal Licensing System and Coast Guard Vessel Documentation Center.

Last reported at 2018-Jul-15 04:51 UTC. Time now 2018-Jul-22 06:34 UTC.
Position N 37°48' W 122°17'.

Length 26 m; draft 1.5 m.

Type: Passenger vessel. MMSI: 367155780.

Date/timePositionNaut miles runAvg speedWind from/ knotsBaromVisibWave heightAir tempDewpointWater temp
2018-Jul-15 04:51N 37°48' W 122°17'1 2.0
2018-Jul-15 04:30N 37°48' W 122°17'3 6.5
2018-Jul-15 04:01N 37°49' W 122°21'2 3.9
2018-Jul-15 03:30N 37°47' W 122°23'1 1.7
2018-Jul-15 03:00N 37°48' W 122°23'2 4.7
2018-Jul-15 02:31N 37°50' W 122°25'3 5.6
2018-Jul-15 02:01N 37°48' W 122°23'3 6.9
2018-Jul-15 01:31N 37°48' W 122°18'1 2.9
2018-Jul-15 01:01N 37°47' W 122°17'0 0.0
2018-Jul-15 00:30N 37°47' W 122°17'0 0.0
2018-Jul-14 17:55N 37°47' W 122°17'0 0.0
2018-Jul-14 17:30N 37°47' W 122°17'0 0.0
2018-Jul-14 17:00N 37°47' W 122°17'0 0.0
2018-Jul-14 16:30N 37°47' W 122°17'0 0.0
2018-Jul-14 16:00N 37°47' W 122°17'0 0.0
2018-Jul-14 15:30N 37°47' W 122°17'0 0.0
2018-Jul-13 22:59N 37°48' W 122°17'3 5.4
2018-Jul-13 22:30N 37°48' W 122°20'3 5.4
2018-Jul-13 21:59N 37°47' W 122°23'1 1.1
2018-Jul-13 21:30N 37°47' W 122°23'1 2.7
2018-Jul-13 21:00N 37°48' W 122°23'3 5.3
2018-Jul-13 20:31N 37°50' W 122°25'2 3.6
2018-Jul-13 20:00N 37°49' W 122°27'3 5.9
2018-Jul-13 19:30N 37°48' W 122°24'1 2.9
2018-Jul-13 19:00N 37°47' W 122°23'1 1.9
2018-Jul-13 18:30N 37°47' W 122°22'3 6.9
2018-Jul-13 18:00N 37°48' W 122°18'1 1.6
2018-Jul-13 17:29N 37°47' W 122°17'0 0.0
2018-Jul-13 16:18N 37°47' W 122°17'0 0.0
2018-Jul-13 16:00N 37°47' W 122°17'0 0.0
2018-Jul-13 15:30N 37°47' W 122°17'  
2018-Jul-05 07:17N 37°48' W 122°17'1 4.2
2018-Jul-05 07:00N 37°47' W 122°18'4 7.6
2018-Jul-05 06:30N 37°47' W 122°23'0 0.4
2018-Jul-05 06:01N 37°47' W 122°23'1 1.1
2018-Jul-05 05:30N 37°47' W 122°23'2 4.4
2018-Jul-05 05:01N 37°49' W 122°25'  
Track history (hours):
 
Tides and Currents Weather Stations Pressure Air Temp Water Temp Dewpoint Dewpoint Depression Visibility Wind Speed Wind Dir Waves Ship Positions

Fume Blanc Commodore

Owner: Commodore Dining Cruises, Alameda, CA. More information available from US FCC via Universal Licensing System and Coast Guard Vessel Documentation Center.

Last reported at 2018-Jul-15 04:51 UTC. Time now 2018-Jul-22 06:34 UTC.
Position N 37°48' W 122°17'.

Length 26 m; draft 1.5 m.

Type: Passenger vessel. MMSI: 367155780.

Date/timePositionNaut miles runAvg speedWind from/ knotsBaromVisibWave heightAir tempDewpointWater temp
2018-Jul-15 04:51N 37°48' W 122°17'1 2.0
2018-Jul-15 04:30N 37°48' W 122°17'3 6.5
2018-Jul-15 04:01N 37°49' W 122°21'2 3.9
2018-Jul-15 03:30N 37°47' W 122°23'1 1.7
2018-Jul-15 03:00N 37°48' W 122°23'2 4.7
2018-Jul-15 02:31N 37°50' W 122°25'3 5.6
2018-Jul-15 02:01N 37°48' W 122°23'3 6.9
2018-Jul-15 01:31N 37°48' W 122°18'1 2.9
2018-Jul-15 01:01N 37°47' W 122°17'0 0.0
2018-Jul-15 00:30N 37°47' W 122°17'0 0.0
2018-Jul-14 17:55N 37°47' W 122°17'0 0.0
2018-Jul-14 17:30N 37°47' W 122°17'0 0.0
2018-Jul-14 17:00N 37°47' W 122°17'0 0.0
2018-Jul-14 16:30N 37°47' W 122°17'0 0.0
2018-Jul-14 16:00N 37°47' W 122°17'0 0.0
2018-Jul-14 15:30N 37°47' W 122°17'0 0.0
2018-Jul-13 22:59N 37°48' W 122°17'3 5.4
2018-Jul-13 22:30N 37°48' W 122°20'3 5.4
2018-Jul-13 21:59N 37°47' W 122°23'1 1.1
2018-Jul-13 21:30N 37°47' W 122°23'1 2.7
2018-Jul-13 21:00N 37°48' W 122°23'3 5.3
2018-Jul-13 20:31N 37°50' W 122°25'2 3.6
2018-Jul-13 20:00N 37°49' W 122°27'3 5.9
2018-Jul-13 19:30N 37°48' W 122°24'1 2.9
2018-Jul-13 19:00N 37°47' W 122°23'1 1.9
2018-Jul-13 18:30N 37°47' W 122°22'3 6.9
2018-Jul-13 18:00N 37°48' W 122°18'1 1.6
2018-Jul-13 17:29N 37°47' W 122°17'0 0.0
2018-Jul-13 16:18N 37°47' W 122°17'0 0.0
2018-Jul-13 16:00N 37°47' W 122°17'0 0.0
2018-Jul-13 15:30N 37°47' W 122°17'  
2018-Jul-05 07:17N 37°48' W 122°17'1 4.2
2018-Jul-05 07:00N 37°47' W 122°18'4 7.6
2018-Jul-05 06:30N 37°47' W 122°23'0 0.4
2018-Jul-05 06:01N 37°47' W 122°23'1 1.1
2018-Jul-05 05:30N 37°47' W 122°23'2 4.4
2018-Jul-05 05:01N 37°49' W 122°25'  

Dump ship's entire track history